x

Monterey - 27nm Wnw Of Monterey, Ca (46042) Wave Buoy

10:50pm - Sat 20th Sep 2014 All times are PDT. -7 hours from GMT.

  • Sig Wave height 3.9ft
  • Swell Direction
  • Peak Period 14s
  • Average Period 9s
  • Wind
    4mph, 7mph gusts
  • Sea Temp 64°f
  • Air Temp 64°f
  • Sea Pressure 1014.4mb
  • Monterey - 27nm Wnw Of Monterey, Ca
  • Monterey - 27nm Wnw Of Monterey, Ca

More Historic Weather Station data

Upgrade to MSW Pro to gain access to the past 30 days of data for over 8000 Wavebouys and Weather Stations around the globe.

Join Pro

Comparision Forecast

View Surf forecast
   
Sat 09/20 10:50pm 4ft 14s 9s 4 7 mph 1014.4mb 64f 64f
9:50pm 4ft 14s 8s 4 7 mph 1014.7mb 64f 64f
8:50pm 4ft 14s 8s 2 4 mph 1014.6mb 64f 64f
7:50pm 3.5ft 14s 7s 4 7 mph 1014.1mb 64f 64f
6:50pm 3.5ft 14s 7s 7 9 mph 1013.7mb 65f 64f
5:50pm 4.5ft 14s 7s 7 9 mph 1013.8mb 64f 64f
4:50pm 4.5ft 14s 7s 9 11 mph 1013.8mb 65f 64f
3:50pm 4ft 15s 7s 7 9 mph 1013.9mb 65f 64f
2:50pm 4.5ft 7s 7s 7 9 mph 1014.1mb 65f 64f
1:50pm 4ft 14s 7s 7 9 mph 1014.6mb 65f 63f
12:50pm 4.5ft 14s 8s 4 7 mph 1015mb 64f 63f
11:50am 4.5ft 14s 8s 4
mph
1015.1mb 64f 63f
10:50am 4.5ft 15s 8s  -  2 mph 1014.9mb 64f 63f
9:50am 4.5ft 15s 8s  -  2 mph 1014.7mb 64f 62f
8:50am 4ft 15s 8s  -  2 mph 1014.2mb 64f 62f
7:50am 3.5ft 15s 8s 4 7 mph 1013.7mb 64f 62f
6:50am 3.5ft 14s 8s 2 4 mph 1013.2mb 64f 63f
5:50am 4.5ft 14s 8s 7 9 mph 1012.5mb 64f 62f
4:50am 3.5ft 10s 8s 2 4 mph 1012.5mb 64f 62f
3:50am 4.5ft 15s 8s 2 4 mph 1012.7mb 64f 62f
2:50am 4.5ft 15s 8s 7 9 mph 1012.9mb 65f 63f
1:50am 4ft 15s 8s 4 7 mph 1013.1mb 65f 62f
12:50am 4.5ft 14s 8s 4 7 mph 1013mb 65f 62f
Fri 09/19 11:50pm 4.5ft 15s 7s 7 11 mph 1013.1mb 65f 62f
10:50pm 5ft 15s 8s 9 11 mph 1013.3mb 65f 63f
9:50pm 4.5ft 15s 8s 7 11 mph 1013.1mb 65f 63f
8:50pm 5ft 15s 7s 9 11 mph 1012.8mb 65f 63f
7:50pm 4.5ft 15s 7s 11 16 mph 1012.1mb 66f 63f
6:50pm 5ft 15s 7s 11 18 mph 1011.9mb 66f 64f
5:50pm 5ft 15s 7s 11 13 mph 1011.8mb 66f 65f
4:50pm 5ft 15s 8s 13 16 mph 1012.1mb 66f 64f
3:50pm 5ft 15s 8s 11 16 mph 1012.5mb 66f 64f
1:50pm 5ft 15s 8s 11 13 mph 1013.3mb 65f 63f
12:50pm 5.5ft 15s 8s 9 13 mph 1013.5mb 65f 61f
11:50am 5ft 10s 8s 9 11 mph 1013.8mb 65f 61f
10:50am 6ft 15s 9s 7 11 mph 1013.8mb 65f 61f
9:50am 5.5ft 15s 8s 4 7 mph 1013.8mb 65f 60f
8:50am 5.5ft 10s 8s 2 4 mph 1013.6mb 65f 60f
7:50am 5.5ft 15s 8s  -  2 mph 1013.3mb 65f 60f
6:50am 6ft 15s 8s 7 9 mph 1013.1mb 65f 61f
5:50am 6ft 16s 8s 2 4 mph 1012.6mb 65f 61f
4:50am 6.5ft 16s 9s 4
mph
1012.5mb 65f 63f
3:50am 6ft 16s 8s 2 4 mph 1012.8mb 65f 63f
2:50am 7ft 16s 8s 4 7 mph 1012.9mb 65f 64f
1:50am 7ft 10s 8s 4
mph
1012.5mb 65f 64f
12:50am 7ft 11s 8s 2
mph
1012.8mb 65f 65f
Thu 09/18 11:50pm 6.5ft 11s 8s 4 7 mph 1012.6mb 66f 65f
10:50pm 7ft 11s 8s 4
mph
1012.6mb 66f 65f
9:50pm 6.5ft 16s 8s 4 7 mph 1012.3mb 66f 65f
8:50pm 7ft 16s 9s 2
mph
1011.9mb 66f 65f
7:50pm 6.5ft 16s 8s  -  mph 1011.5mb 66f 65f
6:50pm 7ft 16s 8s 2 4 mph 1011.4mb 66f 66f
5:50pm 7ft 16s 8s  -  2 mph 1011.3mb 66f 67f
4:50pm 6.5ft 16s 8s 4
mph
1011.5mb 66f 66f
3:50pm 7ft 16s 8s 4 7 mph 1011.5mb 66f 65f
2:50pm 7.5ft 16s 9s 4 7 mph 1011.8mb 65f 65f
1:50pm 7ft 16s 8s 7 9 mph 1012.2mb 65f 65f
12:50pm 6ft 16s 8s 7 9 mph 1012.4mb 65f 65f
11:50am 7ft 10s 8s 9
mph
1012.5mb 65f 65f
10:50am 6ft 10s 8s 9 11 mph 1012.2mb 64f 65f
9:50am 7ft 10s 8s 9 11 mph 1011.9mb 64f 65f
8:50am 8ft 12s 8s 11 13 mph 1011.5mb 64f 64f
7:50am 7.5ft 10s 8s 11 13 mph 1011mb 64f 64f
6:50am 7.5ft 9s 8s 9 11 mph 1010.2mb 64f 65f
5:50am 7.5ft 9s 8s 11 13 mph 1009.7mb 64f 65f
4:50am 8ft 10s 8s 13 16 mph 1009.2mb 64f 64f
3:50am 7.5ft 17s 8s 16 18 mph 1009.2mb 64f 64f
2:50am 7.5ft 17s 8s 16 20 mph 1009.2mb 64f 64f
1:50am 7ft 17s 7s 13 16 mph 1009.5mb 65f 64f
12:50am 6ft 14s 7s 16 18 mph 1009.3mb 65f 64f
Wed 09/17 11:50pm 6.5ft 17s 7s 16 18 mph 1009.2mb 65f 64f
10:50pm 5.5ft 17s 7s 16 18 mph 1009.1mb 65f 65f
9:50pm 6ft 17s 7s 16 18 mph 1009.3mb 65f 65f
8:50pm 4.5ft 17s 7s 16 20 mph 1009mb 65f 65f
7:50pm 4.5ft 17s 8s 16 18 mph 1008.6mb 65f 65f
6:50pm 5ft 17s 10s 11 13 mph 1008.6mb 65f 65f
5:50pm 5ft 17s 11s 11 13 mph 1008.9mb 65f 65f
4:50pm 5.5ft 17s 13s 11 13 mph 1009.1mb 66f 65f
3:50pm 5ft 17s 13s 9 11 mph 1009.7mb 66f 64f
2:50pm 5ft 17s 12s 7 9 mph 1010.1mb 66f 64f
1:50pm 4.5ft 17s 12s 7 9 mph 1010.5mb 66f 64f
12:50pm 4ft 15s 12s 7
mph
1010.7mb 65f 64f
11:50am 4.5ft 19s 12s 4 7 mph 1010.8mb 65f 64f
10:50am 4.5ft 19s 12s  -  2 mph 1011mb 64f 64f
9:50am 4.5ft 17s 11s  -  2 mph 1010.8mb 63f 63f
8:50am 4.5ft 19s 12s 4 7 mph 1010.6mb 63f 62f
7:50am 4ft 19s 11s 7 9 mph 1010.4mb 63f 62f
6:50am 4ft 19s 11s 7 11 mph 1010.1mb 63f 62f